sensor_id;sensor_type;location;lat;lon;timestamp;temperature;humidity
65034;DHT22;51601;51.356;12.458;2023-06-22T00:00:43;21.80;94.60
65034;DHT22;51601;51.356;12.458;2023-06-22T00:05:03;21.80;94.60
65034;DHT22;51601;51.356;12.458;2023-06-22T00:09:22;21.80;94.80
65034;DHT22;51601;51.356;12.458;2023-06-22T00:13:40;21.70;95.00
65034;DHT22;51601;51.356;12.458;2023-06-22T00:17:58;21.70;95.20
65034;DHT22;51601;51.356;12.458;2023-06-22T00:22:18;21.60;95.30
65034;DHT22;51601;51.356;12.458;2023-06-22T00:26:38;21.60;95.50
65034;DHT22;51601;51.356;12.458;2023-06-22T00:30:59;21.50;95.60
65034;DHT22;51601;51.356;12.458;2023-06-22T00:35:17;21.50;95.60
65034;DHT22;51601;51.356;12.458;2023-06-22T00:39:37;21.40;95.70
65034;DHT22;51601;51.356;12.458;2023-06-22T00:43:56;21.40;95.90
65034;DHT22;51601;51.356;12.458;2023-06-22T00:48:14;21.30;96.20
65034;DHT22;51601;51.356;12.458;2023-06-22T00:52:32;21.30;96.40
65034;DHT22;51601;51.356;12.458;2023-06-22T00:56:53;21.20;96.60
65034;DHT22;51601;51.356;12.458;2023-06-22T01:01:11;21.20;96.80
65034;DHT22;51601;51.356;12.458;2023-06-22T01:05:29;21.20;96.80
65034;DHT22;51601;51.356;12.458;2023-06-22T01:09:56;21.10;96.90
65034;DHT22;51601;51.356;12.458;2023-06-22T01:14:22;21.00;97.10
65034;DHT22;51601;51.356;12.458;2023-06-22T01:18:43;20.90;97.50
65034;DHT22;51601;51.356;12.458;2023-06-22T01:23:09;20.80;97.90
65034;DHT22;51601;51.356;12.458;2023-06-22T01:27:40;20.70;98.30
65034;DHT22;51601;51.356;12.458;2023-06-22T01:32:06;20.60;98.60
65034;DHT22;51601;51.356;12.458;2023-06-22T01:36:25;20.50;98.90
65034;DHT22;51601;51.356;12.458;2023-06-22T01:40:43;20.40;99.20
65034;DHT22;51601;51.356;12.458;2023-06-22T01:45:02;20.40;99.50
65034;DHT22;51601;51.356;12.458;2023-06-22T01:49:24;20.40;99.50
65034;DHT22;51601;51.356;12.458;2023-06-22T01:53:43;20.30;99.70
65034;DHT22;51601;51.356;12.458;2023-06-22T01:58:01;20.30;99.80
65034;DHT22;51601;51.356;12.458;2023-06-22T02:02:20;20.30;99.90
65034;DHT22;51601;51.356;12.458;2023-06-22T02:06:45;20.20;99.90
65034;DHT22;51601;51.356;12.458;2023-06-22T02:11:06;20.00;99.90
65034;DHT22;51601;51.356;12.458;2023-06-22T02:15:26;20.00;99.90
65034;DHT22;51601;51.356;12.458;2023-06-22T02:19:44;19.90;99.90
65034;DHT22;51601;51.356;12.458;2023-06-22T02:24:04;19.80;99.90
65034;DHT22;51601;51.356;12.458;2023-06-22T02:28:23;19.80;99.90
65034;DHT22;51601;51.356;12.458;2023-06-22T02:32:41;19.70;99.90
65034;DHT22;51601;51.356;12.458;2023-06-22T02:36:59;19.70;99.90
65034;DHT22;51601;51.356;12.458;2023-06-22T02:41:22;19.60;99.90
65034;DHT22;51601;51.356;12.458;2023-06-22T02:45:38;19.60;99.90
65034;DHT22;51601;51.356;12.458;2023-06-22T02:49:56;19.50;99.90
65034;DHT22;51601;51.356;12.458;2023-06-22T02:54:14;19.50;99.90
65034;DHT22;51601;51.356;12.458;2023-06-22T02:58:37;19.50;99.90
65034;DHT22;51601;51.356;12.458;2023-06-22T03:03:00;19.40;99.90
65034;DHT22;51601;51.356;12.458;2023-06-22T03:07:18;19.30;99.90
65034;DHT22;51601;51.356;12.458;2023-06-22T03:11:39;19.30;99.90
65034;DHT22;51601;51.356;12.458;2023-06-22T03:15:58;19.30;99.90
65034;DHT22;51601;51.356;12.458;2023-06-22T03:20:18;19.30;99.90
65034;DHT22;51601;51.356;12.458;2023-06-22T03:24:36;19.30;99.90
65034;DHT22;51601;51.356;12.458;2023-06-22T03:28:54;19.40;99.90
65034;DHT22;51601;51.356;12.458;2023-06-22T03:33:14;19.40;99.90
65034;DHT22;51601;51.356;12.458;2023-06-22T03:37:30;19.60;99.90
65034;DHT22;51601;51.356;12.458;2023-06-22T03:41:48;19.60;99.90
65034;DHT22;51601;51.356;12.458;2023-06-22T03:46:07;19.70;99.90
65034;DHT22;51601;51.356;12.458;2023-06-22T03:50:26;19.70;99.90
65034;DHT22;51601;51.356;12.458;2023-06-22T03:54:46;19.70;99.90
65034;DHT22;51601;51.356;12.458;2023-06-22T03:59:04;19.90;99.90
65034;DHT22;51601;51.356;12.458;2023-06-22T04:03:22;20.10;99.90
65034;DHT22;51601;51.356;12.458;2023-06-22T04:07:41;20.30;99.90
65034;DHT22;51601;51.356;12.458;2023-06-22T04:12:01;20.50;99.90
65034;DHT22;51601;51.356;12.458;2023-06-22T04:16:47;20.90;99.90
65034;DHT22;51601;51.356;12.458;2023-06-22T04:21:36;21.20;99.90
65034;DHT22;51601;51.356;12.458;2023-06-22T04:26:10;21.70;99.90
65034;DHT22;51601;51.356;12.458;2023-06-22T04:30:58;22.30;99.90
65034;DHT22;51601;51.356;12.458;2023-06-22T04:35:45;22.70;99.90
65034;DHT22;51601;51.356;12.458;2023-06-22T04:40:21;22.80;99.90
65034;DHT22;51601;51.356;12.458;2023-06-22T04:50:30;22.40;99.60
65034;DHT22;51601;51.356;12.458;2023-06-22T04:55:18;22.20;99.90
65034;DHT22;51601;51.356;12.458;2023-06-22T05:00:09;22.00;99.90
65034;DHT22;51601;51.356;12.458;2023-06-22T05:05:03;21.80;99.90
65034;DHT22;51601;51.356;12.458;2023-06-22T05:09:40;21.60;99.90
65034;DHT22;51601;51.356;12.458;2023-06-22T05:14:26;21.40;99.90
65034;DHT22;51601;51.356;12.458;2023-06-22T05:19:18;21.30;99.90
65034;DHT22;51601;51.356;12.458;2023-06-22T05:24:02;21.30;99.90
65034;DHT22;51601;51.356;12.458;2023-06-22T05:39:12;22.60;99.90
65034;DHT22;51601;51.356;12.458;2023-06-22T05:43:31;23.30;99.90
65034;DHT22;51601;51.356;12.458;2023-06-22T05:47:50;23.50;98.50
65034;DHT22;51601;51.356;12.458;2023-06-22T05:52:10;23.50;98.10
65034;DHT22;51601;51.356;12.458;2023-06-22T05:56:42;23.50;98.70
65034;DHT22;51601;51.356;12.458;2023-06-22T06:00:58;24.00;99.10
65034;DHT22;51601;51.356;12.458;2023-06-22T06:05:17;24.60;96.90
65034;DHT22;51601;51.356;12.458;2023-06-22T06:09:34;25.40;93.80
65034;DHT22;51601;51.356;12.458;2023-06-22T06:13:54;26.20;91.80
65034;DHT22;51601;51.356;12.458;2023-06-22T06:18:14;27.10;79.20
65034;DHT22;51601;51.356;12.458;2023-06-22T06:22:32;27.40;70.10
65034;DHT22;51601;51.356;12.458;2023-06-22T06:26:50;27.20;68.00
65034;DHT22;51601;51.356;12.458;2023-06-22T06:31:09;27.20;68.00
65034;DHT22;51601;51.356;12.458;2023-06-22T06:35:29;27.40;66.70
65034;DHT22;51601;51.356;12.458;2023-06-22T06:39:47;27.50;65.60
65034;DHT22;51601;51.356;12.458;2023-06-22T06:44:05;27.50;64.60
65034;DHT22;51601;51.356;12.458;2023-06-22T06:48:24;27.40;64.40
65034;DHT22;51601;51.356;12.458;2023-06-22T06:52:41;27.30;63.60
65034;DHT22;51601;51.356;12.458;2023-06-22T06:57:02;27.20;63.30
65034;DHT22;51601;51.356;12.458;2023-06-22T07:01:20;27.00;64.20
65034;DHT22;51601;51.356;12.458;2023-06-22T07:05:40;27.00;64.60
65034;DHT22;51601;51.356;12.458;2023-06-22T07:09:56;27.20;64.20
65034;DHT22;51601;51.356;12.458;2023-06-22T07:14:14;27.50;63.00
65034;DHT22;51601;51.356;12.458;2023-06-22T07:18:33;28.10;62.30
65034;DHT22;51601;51.356;12.458;2023-06-22T07:22:52;28.70;61.40
65034;DHT22;51601;51.356;12.458;2023-06-22T07:27:12;29.30;58.70
65034;DHT22;51601;51.356;12.458;2023-06-22T07:31:33;29.50;57.50
65034;DHT22;51601;51.356;12.458;2023-06-22T07:35:51;29.70;56.90
65034;DHT22;51601;51.356;12.458;2023-06-22T07:40:11;30.00;57.00
65034;DHT22;51601;51.356;12.458;2023-06-22T07:44:30;30.80;55.40
65034;DHT22;51601;51.356;12.458;2023-06-22T07:48:48;31.60;53.70
65034;DHT22;51601;51.356;12.458;2023-06-22T07:53:06;32.10;51.50
65034;DHT22;51601;51.356;12.458;2023-06-22T07:57:27;32.30;50.40
65034;DHT22;51601;51.356;12.458;2023-06-22T08:01:51;32.40;50.10
65034;DHT22;51601;51.356;12.458;2023-06-22T08:06:10;32.20;49.60
65034;DHT22;51601;51.356;12.458;2023-06-22T08:10:28;32.10;49.60
65034;DHT22;51601;51.356;12.458;2023-06-22T08:14:47;32.10;49.40
65034;DHT22;51601;51.356;12.458;2023-06-22T08:19:07;32.20;49.00
65034;DHT22;51601;51.356;12.458;2023-06-22T08:23:25;32.40;48.60
65034;DHT22;51601;51.356;12.458;2023-06-22T08:27:45;32.70;48.50
65034;DHT22;51601;51.356;12.458;2023-06-22T08:32:06;33.00;48.10
65034;DHT22;51601;51.356;12.458;2023-06-22T08:36:25;33.40;46.50
65034;DHT22;51601;51.356;12.458;2023-06-22T08:40:46;33.70;45.30
65034;DHT22;51601;51.356;12.458;2023-06-22T08:45:05;33.80;44.90
65034;DHT22;51601;51.356;12.458;2023-06-22T08:49:24;33.40;44.80
65034;DHT22;51601;51.356;12.458;2023-06-22T08:53:44;32.70;45.80
65034;DHT22;51601;51.356;12.458;2023-06-22T08:58:02;32.00;47.00
65034;DHT22;51601;51.356;12.458;2023-06-22T09:02:23;31.60;47.90
65034;DHT22;51601;51.356;12.458;2023-06-22T09:06:42;31.40;48.30
65034;DHT22;51601;51.356;12.458;2023-06-22T09:11:02;31.80;48.50
65034;DHT22;51601;51.356;12.458;2023-06-22T09:15:20;32.30;47.50
65034;DHT22;51601;51.356;12.458;2023-06-22T09:19:53;32.80;45.80
65034;DHT22;51601;51.356;12.458;2023-06-22T09:24:13;33.20;45.00
65034;DHT22;51601;51.356;12.458;2023-06-22T09:28:30;33.70;45.50
65034;DHT22;51601;51.356;12.458;2023-06-22T09:32:48;34.30;44.90
65034;DHT22;51601;51.356;12.458;2023-06-22T09:37:06;34.50;43.50
65034;DHT22;51601;51.356;12.458;2023-06-22T09:41:25;34.70;43.20
65034;DHT22;51601;51.356;12.458;2023-06-22T09:45:42;34.70;42.40
65034;DHT22;51601;51.356;12.458;2023-06-22T09:50:04;34.50;42.50
65034;DHT22;51601;51.356;12.458;2023-06-22T09:54:24;34.20;43.20
65034;DHT22;51601;51.356;12.458;2023-06-22T09:58:44;33.90;43.20
65034;DHT22;51601;51.356;12.458;2023-06-22T10:03:03;33.50;43.60
65034;DHT22;51601;51.356;12.458;2023-06-22T10:07:21;33.10;44.10
65034;DHT22;51601;51.356;12.458;2023-06-22T10:11:39;32.80;44.10
65034;DHT22;51601;51.356;12.458;2023-06-22T10:15:59;33.00;44.00
65034;DHT22;51601;51.356;12.458;2023-06-22T10:20:18;33.40;43.60
65034;DHT22;51601;51.356;12.458;2023-06-22T10:24:40;33.80;42.80
65034;DHT22;51601;51.356;12.458;2023-06-22T10:29:01;33.90;43.00
65034;DHT22;51601;51.356;12.458;2023-06-22T10:33:27;34.20;42.50
65034;DHT22;51601;51.356;12.458;2023-06-22T10:37:47;34.50;41.70
65034;DHT22;51601;51.356;12.458;2023-06-22T10:42:05;34.70;41.30
65034;DHT22;51601;51.356;12.458;2023-06-22T10:46:24;34.90;41.00
65034;DHT22;51601;51.356;12.458;2023-06-22T10:50:46;35.10;40.80
65034;DHT22;51601;51.356;12.458;2023-06-22T10:55:05;35.30;39.20
65034;DHT22;51601;51.356;12.458;2023-06-22T10:59:23;35.30;39.70
65034;DHT22;51601;51.356;12.458;2023-06-22T11:03:44;35.50;39.20
65034;DHT22;51601;51.356;12.458;2023-06-22T11:08:06;35.80;39.60
65034;DHT22;51601;51.356;12.458;2023-06-22T11:12:23;36.10;37.80
65034;DHT22;51601;51.356;12.458;2023-06-22T11:16:44;36.20;37.80
65034;DHT22;51601;51.356;12.458;2023-06-22T11:21:08;36.20;37.30
65034;DHT22;51601;51.356;12.458;2023-06-22T11:25:30;36.00;37.50
65034;DHT22;51601;51.356;12.458;2023-06-22T11:29:49;35.90;37.90
65034;DHT22;51601;51.356;12.458;2023-06-22T11:34:18;35.80;38.10
65034;DHT22;51601;51.356;12.458;2023-06-22T11:38:57;35.60;38.50
65034;DHT22;51601;51.356;12.458;2023-06-22T11:44:05;35.40;38.70
65034;DHT22;51601;51.356;12.458;2023-06-22T11:48:32;35.10;39.70
65034;DHT22;51601;51.356;12.458;2023-06-22T11:52:50;35.10;39.50
65034;DHT22;51601;51.356;12.458;2023-06-22T11:57:11;34.80;40.10
65034;DHT22;51601;51.356;12.458;2023-06-22T12:01:30;34.40;40.60
65034;DHT22;51601;51.356;12.458;2023-06-22T12:05:51;34.00;41.00
65034;DHT22;51601;51.356;12.458;2023-06-22T12:10:09;33.50;41.70
65034;DHT22;51601;51.356;12.458;2023-06-22T12:14:26;33.00;42.60
65034;DHT22;51601;51.356;12.458;2023-06-22T12:18:46;32.60;42.90
65034;DHT22;51601;51.356;12.458;2023-06-22T12:23:06;32.20;43.60
65034;DHT22;51601;51.356;12.458;2023-06-22T12:27:24;31.80;44.40
65034;DHT22;51601;51.356;12.458;2023-06-22T12:31:41;31.60;45.00
65034;DHT22;51601;51.356;12.458;2023-06-22T12:36:01;31.60;45.50
65034;DHT22;51601;51.356;12.458;2023-06-22T12:40:21;31.50;45.60
65034;DHT22;51601;51.356;12.458;2023-06-22T12:44:42;31.50;45.50
65034;DHT22;51601;51.356;12.458;2023-06-22T12:49:00;31.50;45.80
65034;DHT22;51601;51.356;12.458;2023-06-22T12:53:20;31.50;45.60
65034;DHT22;51601;51.356;12.458;2023-06-22T12:57:39;31.40;46.00
65034;DHT22;51601;51.356;12.458;2023-06-22T13:01:57;31.40;46.30
65034;DHT22;51601;51.356;12.458;2023-06-22T13:06:15;31.40;46.40
65034;DHT22;51601;51.356;12.458;2023-06-22T13:10:35;31.60;46.00
65034;DHT22;51601;51.356;12.458;2023-06-22T13:14:55;31.60;45.80
65034;DHT22;51601;51.356;12.458;2023-06-22T13:19:12;31.60;46.10
65034;DHT22;51601;51.356;12.458;2023-06-22T13:23:33;31.60;46.40
65034;DHT22;51601;51.356;12.458;2023-06-22T13:27:53;31.50;46.20
65034;DHT22;51601;51.356;12.458;2023-06-22T13:32:13;31.50;46.30
65034;DHT22;51601;51.356;12.458;2023-06-22T13:36:31;31.50;46.30
65034;DHT22;51601;51.356;12.458;2023-06-22T13:40:49;31.50;46.50
65034;DHT22;51601;51.356;12.458;2023-06-22T13:45:09;31.50;46.60
65034;DHT22;51601;51.356;12.458;2023-06-22T13:49:28;31.50;46.30
65034;DHT22;51601;51.356;12.458;2023-06-22T13:53:46;31.50;46.50
65034;DHT22;51601;51.356;12.458;2023-06-22T13:58:04;31.50;46.90
65034;DHT22;51601;51.356;12.458;2023-06-22T14:02:23;31.50;47.10
65034;DHT22;51601;51.356;12.458;2023-06-22T14:06:43;31.40;47.20
65034;DHT22;51601;51.356;12.458;2023-06-22T14:11:01;31.40;47.50
65034;DHT22;51601;51.356;12.458;2023-06-22T14:15:19;31.40;47.70
65034;DHT22;51601;51.356;12.458;2023-06-22T14:19:42;31.40;47.60
65034;DHT22;51601;51.356;12.458;2023-06-22T14:23:59;31.50;47.60
65034;DHT22;51601;51.356;12.458;2023-06-22T14:28:20;31.40;47.80
65034;DHT22;51601;51.356;12.458;2023-06-22T14:32:38;31.50;47.40
65034;DHT22;51601;51.356;12.458;2023-06-22T14:36:57;31.50;47.10
65034;DHT22;51601;51.356;12.458;2023-06-22T14:41:17;31.50;47.10
65034;DHT22;51601;51.356;12.458;2023-06-22T14:45:35;31.50;47.20
65034;DHT22;51601;51.356;12.458;2023-06-22T14:49:53;31.40;47.60
65034;DHT22;51601;51.356;12.458;2023-06-22T14:54:13;31.40;47.50
65034;DHT22;51601;51.356;12.458;2023-06-22T14:58:33;31.40;47.70
65034;DHT22;51601;51.356;12.458;2023-06-22T15:02:53;31.40;47.60
65034;DHT22;51601;51.356;12.458;2023-06-22T15:07:12;31.50;47.60
65034;DHT22;51601;51.356;12.458;2023-06-22T15:11:34;31.50;47.40
65034;DHT22;51601;51.356;12.458;2023-06-22T15:15:53;31.40;47.00
65034;DHT22;51601;51.356;12.458;2023-06-22T15:20:12;31.40;47.70
65034;DHT22;51601;51.356;12.458;2023-06-22T15:24:34;31.50;47.90
65034;DHT22;51601;51.356;12.458;2023-06-22T15:28:55;31.40;47.80
65034;DHT22;51601;51.356;12.458;2023-06-22T15:33:15;31.50;48.30
65034;DHT22;51601;51.356;12.458;2023-06-22T15:37:36;31.40;48.20
65034;DHT22;51601;51.356;12.458;2023-06-22T15:41:58;31.40;48.30
65034;DHT22;51601;51.356;12.458;2023-06-22T15:46:21;31.30;48.20
65034;DHT22;51601;51.356;12.458;2023-06-22T15:50:40;31.30;48.20
65034;DHT22;51601;51.356;12.458;2023-06-22T15:55:01;31.20;48.20
65034;DHT22;51601;51.356;12.458;2023-06-22T15:59:19;31.20;48.20
65034;DHT22;51601;51.356;12.458;2023-06-22T16:03:39;31.20;48.50
65034;DHT22;51601;51.356;12.458;2023-06-22T16:07:58;31.10;48.80
65034;DHT22;51601;51.356;12.458;2023-06-22T16:12:16;31.00;49.00
65034;DHT22;51601;51.356;12.458;2023-06-22T16:16:34;31.00;49.20
65034;DHT22;51601;51.356;12.458;2023-06-22T16:20:53;30.90;49.50
65034;DHT22;51601;51.356;12.458;2023-06-22T16:25:10;30.90;49.80
65034;DHT22;51601;51.356;12.458;2023-06-22T16:29:28;30.80;49.90
65034;DHT22;51601;51.356;12.458;2023-06-22T16:33:46;30.70;50.10
65034;DHT22;51601;51.356;12.458;2023-06-22T16:38:09;30.60;50.20
65034;DHT22;51601;51.356;12.458;2023-06-22T16:42:29;30.60;50.10
65034;DHT22;51601;51.356;12.458;2023-06-22T16:46:47;30.50;50.40
65034;DHT22;51601;51.356;12.458;2023-06-22T16:51:08;30.50;50.60
65034;DHT22;51601;51.356;12.458;2023-06-22T16:55:28;30.40;50.50
65034;DHT22;51601;51.356;12.458;2023-06-22T16:59:47;30.40;50.50
65034;DHT22;51601;51.356;12.458;2023-06-22T17:04:07;30.30;50.70
65034;DHT22;51601;51.356;12.458;2023-06-22T17:08:29;30.30;51.20
65034;DHT22;51601;51.356;12.458;2023-06-22T17:12:52;30.30;51.40
65034;DHT22;51601;51.356;12.458;2023-06-22T17:17:16;30.20;51.60
65034;DHT22;51601;51.356;12.458;2023-06-22T17:21:36;30.20;52.10
65034;DHT22;51601;51.356;12.458;2023-06-22T17:25:59;30.10;52.30
65034;DHT22;51601;51.356;12.458;2023-06-22T17:30:19;30.10;52.70
65034;DHT22;51601;51.356;12.458;2023-06-22T17:34:39;30.00;53.00
65034;DHT22;51601;51.356;12.458;2023-06-22T17:38:59;30.00;53.10
65034;DHT22;51601;51.356;12.458;2023-06-22T17:43:19;29.90;53.20
65034;DHT22;51601;51.356;12.458;2023-06-22T17:47:38;29.80;53.20
65034;DHT22;51601;51.356;12.458;2023-06-22T17:51:57;29.70;53.40
65034;DHT22;51601;51.356;12.458;2023-06-22T17:56:16;29.70;53.60
65034;DHT22;51601;51.356;12.458;2023-06-22T18:00:34;29.60;53.90
65034;DHT22;51601;51.356;12.458;2023-06-22T18:04:56;29.50;54.40
65034;DHT22;51601;51.356;12.458;2023-06-22T18:09:16;29.50;54.50
65034;DHT22;51601;51.356;12.458;2023-06-22T18:13:34;29.40;54.80
65034;DHT22;51601;51.356;12.458;2023-06-22T18:17:52;29.30;55.00
65034;DHT22;51601;51.356;12.458;2023-06-22T18:22:12;29.20;55.40
65034;DHT22;51601;51.356;12.458;2023-06-22T18:26:32;29.10;55.60
65034;DHT22;51601;51.356;12.458;2023-06-22T18:30:53;29.00;55.90
65034;DHT22;51601;51.356;12.458;2023-06-22T18:35:13;28.90;56.20
65034;DHT22;51601;51.356;12.458;2023-06-22T18:39:33;28.90;56.50
65034;DHT22;51601;51.356;12.458;2023-06-22T18:43:52;28.80;56.90
65034;DHT22;51601;51.356;12.458;2023-06-22T18:48:11;28.70;57.10
65034;DHT22;51601;51.356;12.458;2023-06-22T18:52:29;28.60;57.30
65034;DHT22;51601;51.356;12.458;2023-06-22T18:56:55;28.60;57.70
65034;DHT22;51601;51.356;12.458;2023-06-22T19:01:15;28.50;58.00
65034;DHT22;51601;51.356;12.458;2023-06-22T19:05:39;28.40;58.10
65034;DHT22;51601;51.356;12.458;2023-06-22T19:10:21;28.30;58.50
65034;DHT22;51601;51.356;12.458;2023-06-22T19:14:40;28.30;58.70
65034;DHT22;51601;51.356;12.458;2023-06-22T19:18:57;28.20;59.10
65034;DHT22;51601;51.356;12.458;2023-06-22T19:23:28;28.10;59.30
65034;DHT22;51601;51.356;12.458;2023-06-22T19:27:49;28.00;59.60
65034;DHT22;51601;51.356;12.458;2023-06-22T19:32:11;28.00;59.90
65034;DHT22;51601;51.356;12.458;2023-06-22T19:36:30;27.90;60.30
65034;DHT22;51601;51.356;12.458;2023-06-22T19:40:49;27.80;60.60
65034;DHT22;51601;51.356;12.458;2023-06-22T19:45:08;27.70;61.00
65034;DHT22;51601;51.356;12.458;2023-06-22T19:49:30;27.70;61.30
65034;DHT22;51601;51.356;12.458;2023-06-22T19:53:49;27.60;61.80
65034;DHT22;51601;51.356;12.458;2023-06-22T19:58:08;27.50;61.90
65034;DHT22;51601;51.356;12.458;2023-06-22T20:02:29;27.50;62.50
65034;DHT22;51601;51.356;12.458;2023-06-22T20:07:06;27.50;64.90
65034;DHT22;51601;51.356;12.458;2023-06-22T20:11:24;27.20;66.10
65034;DHT22;51601;51.356;12.458;2023-06-22T20:15:45;27.00;67.80
65034;DHT22;51601;51.356;12.458;2023-06-22T20:20:06;26.70;69.50
65034;DHT22;51601;51.356;12.458;2023-06-22T20:24:27;26.60;71.80
65034;DHT22;51601;51.356;12.458;2023-06-22T20:28:44;26.40;74.40
65034;DHT22;51601;51.356;12.458;2023-06-22T20:33:02;26.20;77.10
65034;DHT22;51601;51.356;12.458;2023-06-22T20:37:23;26.00;80.00
65034;DHT22;51601;51.356;12.458;2023-06-22T20:41:46;25.90;82.10
65034;DHT22;51601;51.356;12.458;2023-06-22T20:46:02;25.80;82.20
65034;DHT22;51601;51.356;12.458;2023-06-22T20:50:24;25.60;71.90
65034;DHT22;51601;51.356;12.458;2023-06-22T20:54:48;25.20;68.80
65034;DHT22;51601;51.356;12.458;2023-06-22T20:59:08;24.70;69.70
65034;DHT22;51601;51.356;12.458;2023-06-22T21:03:27;24.10;71.10
65034;DHT22;51601;51.356;12.458;2023-06-22T21:07:45;23.60;73.90
65034;DHT22;51601;51.356;12.458;2023-06-22T21:12:04;23.20;77.80
65034;DHT22;51601;51.356;12.458;2023-06-22T21:16:25;22.90;81.70
65034;DHT22;51601;51.356;12.458;2023-06-22T21:20:42;22.70;85.60
65034;DHT22;51601;51.356;12.458;2023-06-22T21:25:07;22.40;88.90
65034;DHT22;51601;51.356;12.458;2023-06-22T21:29:24;22.20;91.20
65034;DHT22;51601;51.356;12.458;2023-06-22T21:33:44;21.90;92.90
65034;DHT22;51601;51.356;12.458;2023-06-22T21:38:01;21.70;94.70
65034;DHT22;51601;51.356;12.458;2023-06-22T21:42:19;21.40;96.50
65034;DHT22;51601;51.356;12.458;2023-06-22T21:46:40;21.20;98.00
65034;DHT22;51601;51.356;12.458;2023-06-22T21:50:59;21.00;99.50
65034;DHT22;51601;51.356;12.458;2023-06-22T21:55:16;20.80;99.90
65034;DHT22;51601;51.356;12.458;2023-06-22T21:59:34;20.70;99.90
65034;DHT22;51601;51.356;12.458;2023-06-22T22:03:53;20.60;99.90
65034;DHT22;51601;51.356;12.458;2023-06-22T22:08:11;20.70;99.90
65034;DHT22;51601;51.356;12.458;2023-06-22T22:12:28;20.80;99.90
65034;DHT22;51601;51.356;12.458;2023-06-22T22:16:46;20.90;99.90
65034;DHT22;51601;51.356;12.458;2023-06-22T22:21:04;20.60;99.90
65034;DHT22;51601;51.356;12.458;2023-06-22T22:25:24;20.40;99.90
65034;DHT22;51601;51.356;12.458;2023-06-22T22:29:43;20.10;99.90
65034;DHT22;51601;51.356;12.458;2023-06-22T22:34:01;19.80;99.90
65034;DHT22;51601;51.356;12.458;2023-06-22T22:38:19;19.60;99.90
65034;DHT22;51601;51.356;12.458;2023-06-22T22:42:39;19.40;99.90
65034;DHT22;51601;51.356;12.458;2023-06-22T22:46:59;19.20;99.90
65034;DHT22;51601;51.356;12.458;2023-06-22T22:51:17;19.10;99.90
65034;DHT22;51601;51.356;12.458;2023-06-22T22:55:35;19.00;99.90
65034;DHT22;51601;51.356;12.458;2023-06-22T22:59:54;18.90;99.90
65034;DHT22;51601;51.356;12.458;2023-06-22T23:04:11;18.80;99.90
65034;DHT22;51601;51.356;12.458;2023-06-22T23:08:35;18.80;99.90
65034;DHT22;51601;51.356;12.458;2023-06-22T23:12:53;18.80;99.90
65034;DHT22;51601;51.356;12.458;2023-06-22T23:17:13;18.70;99.90
65034;DHT22;51601;51.356;12.458;2023-06-22T23:21:29;18.70;99.90
65034;DHT22;51601;51.356;12.458;2023-06-22T23:25:47;18.70;99.90
65034;DHT22;51601;51.356;12.458;2023-06-22T23:30:06;18.70;99.90
65034;DHT22;51601;51.356;12.458;2023-06-22T23:34:28;18.70;99.90
65034;DHT22;51601;51.356;12.458;2023-06-22T23:38:48;18.70;99.90
65034;DHT22;51601;51.356;12.458;2023-06-22T23:43:06;18.60;99.90
65034;DHT22;51601;51.356;12.458;2023-06-22T23:47:24;18.70;99.90
65034;DHT22;51601;51.356;12.458;2023-06-22T23:51:44;18.70;99.90
65034;DHT22;51601;51.356;12.458;2023-06-22T23:56:03;18.80;99.90
